createdAt,value
2019-03-30T00:02:37.959Z,10.20
2019-03-30T00:07:44.987Z,10.10
2019-03-30T00:12:51.890Z,10.20
2019-03-30T00:17:58.846Z,10.10
2019-03-30T00:23:05.944Z,10.20
2019-03-30T00:28:12.757Z,10.20
2019-03-30T00:33:19.635Z,10.20
2019-03-30T00:38:26.566Z,10.10
2019-03-30T00:43:34.370Z,10.10
2019-03-30T00:48:41.283Z,10.00
2019-03-30T00:53:48.116Z,10.00
2019-03-30T00:58:55.108Z,9.90
2019-03-30T01:04:02.079Z,9.70
2019-03-30T01:09:09.978Z,9.60
2019-03-30T01:14:17.279Z,9.60
2019-03-30T01:19:24.336Z,9.50
2019-03-30T01:24:31.091Z,9.40
2019-03-30T01:29:38.147Z,9.40
2019-03-30T01:34:45.090Z,9.30
2019-03-30T01:39:52.124Z,9.20
2019-03-30T01:44:59.104Z,9.10
2019-03-30T01:50:17.288Z,9.00
2019-03-30T01:55:16.259Z,9.00
2019-03-30T02:00:23.141Z,9.00
2019-03-30T02:05:30.190Z,9.00
2019-03-30T02:10:45.419Z,8.90
2019-03-30T02:15:52.639Z,8.80
2019-03-30T02:20:59.581Z,8.70
2019-03-30T02:26:06.439Z,8.70
2019-03-30T02:31:13.331Z,8.70
2019-03-30T02:36:20.316Z,8.60
2019-03-30T02:41:27.262Z,8.60
2019-03-30T02:46:34.895Z,8.40
2019-03-30T02:51:41.717Z,8.40
2019-03-30T02:56:48.777Z,8.40
2019-03-30T03:01:56.040Z,8.40
2019-03-30T03:07:03.155Z,8.30
2019-03-30T03:12:10.065Z,8.20
2019-03-30T03:17:17.349Z,8.20
2019-03-30T03:22:24.330Z,8.20
2019-03-30T03:27:32.808Z,8.10
2019-03-30T03:32:39.865Z,8.10
2019-03-30T03:37:46.757Z,8.00
2019-03-30T03:42:54.195Z,8.10
2019-03-30T03:48:01.141Z,8.10
2019-03-30T03:53:08.159Z,8.10
2019-03-30T03:58:17.242Z,8.10
2019-03-30T04:03:26.640Z,8.10
2019-03-30T04:08:33.886Z,8.20
2019-03-30T04:13:42.997Z,8.10
2019-03-30T04:18:50.107Z,8.00
2019-03-30T04:23:56.917Z,8.10
2019-03-30T04:29:04.130Z,8.10
2019-03-30T04:34:11.028Z,8.20
2019-03-30T04:39:18.021Z,8.20
2019-03-30T04:44:24.912Z,8.30
2019-03-30T04:49:31.971Z,8.20
2019-03-30T04:54:38.802Z,8.20
2019-03-30T04:59:45.665Z,8.10
2019-03-30T05:04:52.466Z,8.00
2019-03-30T05:10:00.522Z,8.00
2019-03-30T05:15:09.189Z,8.00
2019-03-30T05:20:16.287Z,8.00
2019-03-30T05:25:23.082Z,7.90
2019-03-30T05:30:30.295Z,7.90
2019-03-30T05:35:37.123Z,8.10
2019-03-30T05:40:44.150Z,8.00
2019-03-30T05:45:50.944Z,8.10
2019-03-30T05:50:57.908Z,8.20
2019-03-30T05:56:05.047Z,8.30
2019-03-30T06:01:12.898Z,8.30
2019-03-30T06:06:19.674Z,8.40
2019-03-30T06:11:26.491Z,8.30
2019-03-30T06:16:33.699Z,8.30
2019-03-30T06:21:40.457Z,8.30
2019-03-30T06:26:47.319Z,8.30
2019-03-30T06:31:54.120Z,8.40
2019-03-30T06:37:00.962Z,8.50
2019-03-30T06:42:07.918Z,8.50
2019-03-30T06:47:14.859Z,8.60
2019-03-30T06:52:24.863Z,8.80
2019-03-30T06:57:31.723Z,8.80
2019-03-30T07:02:39.666Z,8.80
2019-03-30T07:07:49.091Z,9.00
2019-03-30T07:12:57.419Z,9.30
2019-03-30T07:18:05.609Z,9.60
2019-03-30T07:23:12.915Z,10.00
2019-03-30T07:28:20.040Z,10.40
2019-03-30T07:33:26.865Z,10.80
2019-03-30T07:38:33.747Z,11.10
2019-03-30T07:43:40.902Z,11.50
2019-03-30T07:48:47.755Z,12.00
2019-03-30T07:53:54.548Z,12.60
2019-03-30T07:59:01.279Z,13.10
2019-03-30T08:04:08.214Z,13.30
2019-03-30T08:09:15.045Z,13.70
2019-03-30T08:14:21.854Z,13.90
2019-03-30T08:19:28.733Z,14.00
2019-03-30T08:24:35.679Z,14.60
2019-03-30T08:29:42.599Z,14.80
2019-03-30T08:34:49.688Z,14.50
2019-03-30T08:39:56.525Z,14.50
2019-03-30T08:45:03.491Z,14.90
2019-03-30T08:50:11.098Z,15.10
2019-03-30T08:55:18.080Z,15.60
2019-03-30T09:00:44.006Z,15.80
2019-03-30T09:05:51.018Z,16.60
2019-03-30T09:10:57.837Z,17.10
2019-03-30T09:16:04.790Z,16.60
2019-03-30T09:21:11.715Z,17.10
2019-03-30T09:26:18.572Z,17.40
2019-03-30T09:31:25.482Z,18.10
2019-03-30T09:36:33.734Z,18.50
2019-03-30T09:41:40.690Z,18.30
2019-03-30T09:46:47.677Z,19.20
2019-03-30T09:51:54.659Z,19.60
2019-03-30T09:57:01.817Z,19.90
2019-03-30T10:02:08.875Z,19.90
2019-03-30T10:07:16.030Z,19.90
2019-03-30T10:12:22.929Z,20.30
2019-03-30T10:17:29.701Z,20.40
2019-03-30T10:22:36.529Z,20.20
2019-03-30T10:27:43.364Z,20.10
2019-03-30T10:32:50.369Z,21.20
2019-03-30T10:37:57.295Z,20.90
2019-03-30T10:43:04.524Z,21.10
2019-03-30T10:48:11.350Z,21.00
2019-03-30T10:53:18.298Z,20.70
2019-03-30T10:58:25.195Z,21.30
2019-03-30T11:03:32.341Z,21.30
2019-03-30T11:08:39.149Z,21.60
2019-03-30T11:13:46.141Z,21.50
2019-03-30T11:18:53.019Z,21.40
2019-03-30T11:24:00.021Z,21.20
2019-03-30T11:29:07.038Z,20.90
2019-03-30T11:34:14.011Z,21.00
2019-03-30T11:39:21.067Z,20.40
2019-03-30T11:44:27.949Z,20.80
2019-03-30T11:49:34.979Z,21.30
2019-03-30T11:54:42.047Z,21.50
2019-03-30T11:59:48.925Z,21.10
2019-03-30T12:04:56.049Z,20.80
2019-03-30T12:10:03.043Z,21.40
2019-03-30T12:15:10.529Z,21.00
2019-03-30T12:20:17.558Z,21.00
2019-03-30T12:25:34.961Z,21.20
2019-03-30T12:30:33.099Z,21.20
2019-03-30T12:35:39.897Z,21.40
2019-03-30T12:40:46.736Z,20.90
2019-03-30T12:45:53.835Z,20.70
2019-03-30T12:51:00.631Z,21.30
2019-03-30T12:56:08.930Z,21.20
2019-03-30T13:01:16.346Z,21.20
2019-03-30T13:06:23.370Z,21.70
2019-03-30T13:11:30.296Z,21.10
2019-03-30T13:16:37.159Z,21.00
2019-03-30T13:21:52.536Z,21.40
2019-03-30T13:26:53.053Z,21.70
2019-03-30T13:32:00.145Z,21.00
2019-03-30T13:37:17.328Z,20.60
2019-03-30T13:42:24.369Z,21.30
2019-03-30T13:47:31.318Z,20.90
2019-03-30T13:52:38.223Z,20.90
2019-03-30T13:57:45.474Z,21.30
2019-03-30T14:02:52.559Z,21.20
2019-03-30T14:07:59.771Z,21.40
2019-03-30T14:13:06.643Z,21.60
2019-03-30T14:18:13.910Z,21.40
2019-03-30T14:23:20.925Z,21.00
2019-03-30T14:28:28.370Z,20.70
2019-03-30T14:33:35.152Z,20.90
2019-03-30T14:38:41.956Z,21.30
2019-03-30T14:43:48.885Z,21.40
2019-03-30T14:48:55.782Z,21.40
2019-03-30T14:54:02.969Z,20.90
2019-03-30T14:59:10.682Z,20.40
2019-03-30T15:04:20.915Z,20.20
2019-03-30T15:09:28.066Z,20.30
2019-03-30T15:14:35.143Z,20.70
2019-03-30T15:19:42.216Z,20.30
2019-03-30T15:24:49.876Z,20.30
2019-03-30T15:29:56.843Z,20.10
2019-03-30T15:35:03.806Z,20.10
2019-03-30T15:40:11.596Z,20.10
2019-03-30T15:45:18.616Z,19.90
2019-03-30T15:50:25.757Z,19.70
2019-03-30T15:55:33.581Z,19.70
2019-03-30T16:00:40.465Z,19.90
2019-03-30T16:05:47.561Z,19.90
2019-03-30T16:10:54.734Z,20.00
2019-03-30T16:16:01.975Z,20.10
2019-03-30T16:21:08.864Z,19.90
2019-03-30T16:26:15.754Z,19.80
2019-03-30T16:31:23.722Z,19.90
2019-03-30T16:36:30.975Z,19.70
2019-03-30T16:41:37.944Z,19.70
2019-03-30T16:46:44.804Z,19.70
2019-03-30T16:51:51.764Z,19.50
2019-03-30T16:56:58.706Z,19.40
2019-03-30T17:02:06.504Z,19.30
2019-03-30T17:07:14.227Z,19.10
2019-03-30T17:12:21.094Z,19.10
2019-03-30T17:17:28.000Z,18.80
2019-03-30T17:22:34.845Z,18.80
2019-03-30T17:27:41.904Z,18.70
2019-03-30T17:32:49.026Z,18.60
2019-03-30T17:37:56.485Z,18.50
2019-03-30T17:43:03.852Z,18.40
2019-03-30T17:48:10.685Z,18.20
2019-03-30T17:53:17.918Z,18.10
2019-03-30T17:58:24.810Z,18.10
2019-03-30T18:03:31.705Z,18.00
2019-03-30T18:08:38.703Z,18.00
2019-03-30T18:13:45.996Z,17.90
2019-03-30T18:18:52.889Z,17.80
2019-03-30T18:23:59.801Z,17.70
2019-03-30T18:29:37.979Z,17.60
2019-03-30T18:34:46.808Z,17.40
2019-03-30T18:39:53.935Z,17.20
2019-03-30T18:45:01.693Z,17.10
2019-03-30T18:50:09.241Z,17.00
2019-03-30T18:55:19.349Z,16.90
2019-03-30T19:00:29.313Z,16.70
2019-03-30T19:05:36.264Z,16.60
2019-03-30T19:10:43.195Z,16.60
2019-03-30T19:15:50.862Z,16.60
2019-03-30T19:20:57.836Z,16.50
2019-03-30T19:26:04.714Z,16.40
2019-03-30T19:31:12.043Z,16.20
2019-03-30T19:36:18.886Z,16.20
2019-03-30T19:41:25.942Z,16.20
2019-03-30T19:46:32.959Z,16.20
2019-03-30T19:51:40.064Z,16.10
2019-03-30T19:56:47.041Z,16.10
2019-03-30T20:01:54.097Z,16.00
2019-03-30T20:07:01.237Z,16.00
2019-03-30T20:12:08.284Z,16.00
2019-03-30T20:17:16.491Z,15.80
2019-03-30T20:22:23.375Z,15.70
2019-03-30T20:27:30.204Z,15.60
2019-03-30T20:32:37.086Z,15.60
2019-03-30T20:37:44.020Z,15.50
2019-03-30T20:42:50.991Z,15.40
2019-03-30T20:47:58.083Z,15.30
2019-03-30T20:53:06.309Z,15.20
2019-03-30T20:58:13.432Z,15.00
2019-03-30T21:03:20.388Z,14.80
2019-03-30T21:08:27.178Z,14.70
2019-03-30T21:13:34.955Z,14.60
2019-03-30T21:18:42.119Z,14.50
2019-03-30T21:23:49.313Z,14.50
2019-03-30T21:28:56.470Z,14.30
2019-03-30T21:34:03.421Z,14.30
2019-03-30T21:39:10.689Z,14.30
2019-03-30T21:44:22.121Z,14.20
2019-03-30T21:49:26.356Z,14.20
2019-03-30T21:54:33.300Z,14.10
2019-03-30T21:59:40.098Z,14.10
2019-03-30T22:04:47.239Z,14.10
2019-03-30T22:09:54.336Z,14.10
2019-03-30T22:15:01.825Z,14.00
2019-03-30T22:20:08.741Z,13.90
2019-03-30T22:25:15.559Z,13.80
2019-03-30T22:30:25.172Z,13.80
2019-03-30T22:35:31.139Z,13.70
2019-03-30T22:40:41.416Z,13.60
2019-03-30T22:45:47.158Z,13.50
2019-03-30T22:50:53.988Z,13.40
2019-03-30T22:56:00.849Z,13.40
2019-03-30T23:01:12.265Z,13.40
2019-03-30T23:06:20.697Z,13.20
2019-03-30T23:11:28.808Z,13.20
2019-03-30T23:16:37.341Z,13.00
2019-03-30T23:21:44.205Z,13.00
2019-03-30T23:26:51.076Z,13.00
2019-03-30T23:31:58.443Z,12.80
2019-03-30T23:37:06.147Z,12.70
2019-03-30T23:42:13.023Z,12.70
2019-03-30T23:47:20.252Z,12.60
2019-03-30T23:52:27.055Z,12.50
2019-03-30T23:57:33.860Z,12.30
